Time;durP1;ratioP1;P1;durP2;ratioP2;P2;SDS_P1;SDS_P2;PMS_P1;PMS_P2;Temp;Humidity;BMP_temperature;BMP_pressure;BME280_temperature;BME280_humidity;BME280_pressure;Samples;Min_cycle;Max_cycle;Signal;HPM_P1;HPM_P2
2021/12/23 00:00:34;;;;;;;13.10;7.20;;;;;;;;;;5132980;27;20376;-73
2021/12/23 00:03:00;;;;;;;12.20;6.72;;;;;;;;;;5132687;27;20053;-72
2021/12/23 00:05:26;;;;;;;10.73;4.55;;;;;;;;;;5132532;27;20029;-73
2021/12/23 00:07:52;;;;;;;10.45;6.32;;;;;;;;;;5132670;27;20023;-73
2021/12/23 00:10:19;;;;;;;12.50;6.70;;;;;;;;;;5135153;27;20039;-73
2021/12/23 00:12:46;;;;;;;8.27;6.00;;;;;;;;;;5133284;27;20400;-73
2021/12/23 00:15:27;;;;;;;8.82;5.63;;;;;;;;;;5132710;27;20023;-73
2021/12/23 00:18:03;;;;;;;;;;;;;;;;;;5132840;27;20022;-73
2021/12/23 00:25:46;;;;;;;7.95;5.50;;;;;;;;;;5115815;27;20035;-73
2021/12/23 00:28:12;;;;;;;11.60;5.97;;;;;;;;;;5136409;27;20027;-73
2021/12/23 00:30:38;;;;;;;13.00;6.13;;;;;;;;;;5132414;27;20032;-73
2021/12/23 00:33:05;;;;;;;16.30;5.57;;;;;;;;;;5132239;27;20503;-73
2021/12/23 00:35:31;;;;;;;8.68;4.25;;;;;;;;;;5132160;27;20023;-73
2021/12/23 00:38:02;;;;;;;8.32;4.80;;;;;;;;;;5132148;27;20068;-73
2021/12/23 00:40:28;;;;;;;8.63;4.78;;;;;;;;;;5134094;27;20385;-73
2021/12/23 00:42:55;;;;;;;5.95;3.92;;;;;;;;;;5133351;27;20046;-73
2021/12/23 00:45:22;;;;;;;9.98;3.92;;;;;;;;;;5131775;27;20042;-73
2021/12/23 00:47:48;;;;;;;7.88;3.85;;;;;;;;;;5131844;27;20404;-73
2021/12/23 00:50:15;;;;;;;9.32;3.42;;;;;;;;;;5132052;27;20035;-73
2021/12/23 00:52:41;;;;;;;6.47;3.60;;;;;;;;;;5132493;27;20027;-73
2021/12/23 00:55:09;;;;;;;10.65;4.45;;;;;;;;;;5134792;27;20019;-73
2021/12/23 00:57:40;;;;;;;5.85;2.92;;;;;;;;;;5131793;27;20027;-73
2021/12/23 01:00:11;;;;;;;7.45;3.65;;;;;;;;;;5112053;27;20031;-73
2021/12/23 01:02:42;;;;;;;10.77;4.10;;;;;;;;;;5132788;27;20816;-73
2021/12/23 01:05:09;;;;;;;10.13;3.17;;;;;;;;;;5113312;27;20023;-73
2021/12/23 01:07:35;;;;;;;7.97;2.95;;;;;;;;;;5133191;27;20019;-71
2021/12/23 01:10:02;;;;;;;4.25;2.80;;;;;;;;;;5133517;27;20047;-73
2021/12/23 01:12:35;;;;;;;3.42;2.72;;;;;;;;;;5131328;27;20022;-72
2021/12/23 01:15:38;;;;;;;7.05;2.90;;;;;;;;;;5131415;27;20039;-72
2021/12/23 01:18:12;;;;;;;;;;;;;;;;;;5131390;27;20378;-73
2021/12/23 01:20:40;;;;;;;3.97;2.30;;;;;;;;;;5131393;27;20396;-73
2021/12/23 01:23:09;;;;;;;3.20;2.28;;;;;;;;;;5131006;27;20023;-72
2021/12/23 01:25:37;;;;;;;6.10;2.42;;;;;;;;;;5132776;27;20793;-73
2021/12/23 01:28:05;;;;;;;4.25;2.20;;;;;;;;;;5133672;27;20442;-73
2021/12/23 01:30:31;;;;;;;5.13;1.95;;;;;;;;;;5130984;27;20031;-73
2021/12/23 01:32:58;;;;;;;7.05;1.80;;;;;;;;;;5112761;27;20503;-73
2021/12/23 01:35:25;;;;;;;2.85;1.70;;;;;;;;;;5130703;27;20024;-73
2021/12/23 01:37:52;;;;;;;3.35;2.10;;;;;;;;;;5130665;27;20011;-73
2021/12/23 01:40:19;;;;;;;4.25;1.85;;;;;;;;;;5134075;27;20034;-72
2021/12/23 01:42:46;;;;;;;1.92;1.50;;;;;;;;;;5132942;27;20519;-72
2021/12/23 01:45:15;;;;;;;4.10;1.40;;;;;;;;;;5130646;27;20049;-73
2021/12/23 01:47:41;;;;;;;4.85;1.40;;;;;;;;;;5130837;27;20037;-73
2021/12/23 01:50:08;;;;;;;3.22;1.55;;;;;;;;;;5130782;27;20091;-73
2021/12/23 01:52:35;;;;;;;5.05;1.80;;;;;;;;;;5131976;27;20043;-73
2021/12/23 01:55:02;;;;;;;2.10;1.50;;;;;;;;;;5132951;27;20416;-73
2021/12/23 01:57:30;;;;;;;2.47;1.80;;;;;;;;;;5130568;27;20438;-73
2021/12/23 01:59:57;;;;;;;5.15;2.15;;;;;;;;;;5130431;27;20381;-73
2021/12/23 02:02:24;;;;;;;3.58;1.80;;;;;;;;;;5130408;27;20526;-73
2021/12/23 02:04:51;;;;;;;3.20;1.70;;;;;;;;;;5130608;27;20034;-73
2021/12/23 02:07:18;;;;;;;16.08;5.22;;;;;;;;;;5132949;27;20027;-73
2021/12/23 02:09:44;;;;;;;4.28;2.20;;;;;;;;;;5130857;27;20043;-72
2021/12/23 02:12:11;;;;;;;1.63;1.40;;;;;;;;;;5129808;27;20029;-73
2021/12/23 02:14:37;;;;;;;3.40;1.60;;;;;;;;;;5130245;27;20379;-73
2021/12/23 02:17:04;;;;;;;1.90;1.23;;;;;;;;;;5112121;27;20020;-73
2021/12/23 02:19:32;;;;;;;2.00;1.50;;;;;;;;;;5131518;27;20019;-73
2021/12/23 02:21:58;;;;;;;3.72;1.70;;;;;;;;;;5133218;27;20481;-73
2021/12/23 02:24:25;;;;;;;3.03;1.83;;;;;;;;;;5129991;27;20022;-73
2021/12/23 02:26:51;;;;;;;2.50;1.50;;;;;;;;;;5130265;27;20389;-73
2021/12/23 02:29:18;;;;;;;5.05;2.50;;;;;;;;;;5129742;27;20385;-73
2021/12/23 02:31:49;;;;;;;2.65;1.60;;;;;;;;;;5129994;27;20430;-73
2021/12/23 02:34:16;;;;;;;3.70;1.90;;;;;;;;;;5133071;27;20027;-72
2021/12/23 02:36:42;;;;;;;6.53;2.03;;;;;;;;;;5129877;27;20035;-73
2021/12/23 02:39:09;;;;;;;1.52;1.30;;;;;;;;;;5130062;27;20026;-72
2021/12/23 02:41:41;;;;;;;2.78;1.25;;;;;;;;;;5129951;27;20026;-73
2021/12/23 02:44:07;;;;;;;3.22;1.58;;;;;;;;;;5129629;27;20041;-73
2021/12/23 02:46:35;;;;;;;2.40;1.60;;;;;;;;;;5131617;27;20031;-73
2021/12/23 02:49:01;;;;;;;1.85;1.20;;;;;;;;;;5131938;27;20031;-72
2021/12/23 02:51:27;;;;;;;2.65;1.40;;;;;;;;;;5129531;27;20024;-73
2021/12/23 02:53:54;;;;;;;4.82;1.50;;;;;;;;;;5129707;27;20045;-72
2021/12/23 02:56:20;;;;;;;1.77;1.35;;;;;;;;;;5129507;27;20385;-73
2021/12/23 02:58:46;;;;;;;2.97;1.70;;;;;;;;;;5131106;27;20024;-73
2021/12/23 03:01:14;;;;;;;9.90;3.95;;;;;;;;;;5132843;27;20533;-73
2021/12/23 03:03:42;;;;;;;6.20;2.13;;;;;;;;;;5131034;27;20503;-73
2021/12/23 03:06:09;;;;;;;3.70;1.45;;;;;;;;;;5129668;27;20030;-73
2021/12/23 03:08:36;;;;;;;3.00;1.70;;;;;;;;;;5129646;27;20027;-73
2021/12/23 03:11:04;;;;;;;4.18;1.52;;;;;;;;;;5129703;27;20024;-72
2021/12/23 03:13:30;;;;;;;2.20;1.38;;;;;;;;;;5131198;27;20489;-73
2021/12/23 03:15:59;;;;;;;2.13;1.45;;;;;;;;;;5131407;27;20024;-73
2021/12/23 03:18:25;;;;;;;2.25;1.48;;;;;;;;;;5129010;28;20027;-73
2021/12/23 03:20:52;;;;;;;3.47;1.70;;;;;;;;;;5129226;28;20021;-73
2021/12/23 03:23:18;;;;;;;3.40;1.65;;;;;;;;;;5130246;27;20030;-73
2021/12/23 03:25:44;;;;;;;2.95;1.83;;;;;;;;;;5133763;27;20037;-73
2021/12/23 03:28:11;;;;;;;2.60;1.67;;;;;;;;;;5137224;27;20027;-73
2021/12/23 03:30:37;;;;;;;2.13;1.92;;;;;;;;;;5133170;27;20038;-73
2021/12/23 03:33:04;;;;;;;4.43;2.13;;;;;;;;;;5133175;27;20030;-73
2021/12/23 03:35:31;;;;;;;3.28;2.13;;;;;;;;;;5133369;27;20392;-73
2021/12/23 03:37:57;;;;;;;4.05;1.92;;;;;;;;;;5135333;27;20019;-73
2021/12/23 03:40:24;;;;;;;3.70;2.38;;;;;;;;;;5135760;27;20038;-73
2021/12/23 03:42:50;;;;;;;4.07;2.00;;;;;;;;;;5134254;27;20481;-72
2021/12/23 03:45:17;;;;;;;3.63;2.35;;;;;;;;;;5133048;27;20049;-73
2021/12/23 03:47:48;;;;;;;4.60;2.28;;;;;;;;;;5132715;27;20023;-71
2021/12/23 03:50:17;;;;;;;2.45;1.98;;;;;;;;;;5133196;27;20031;-72
2021/12/23 03:52:43;;;;;;;3.00;2.30;;;;;;;;;;5098695;27;20027;-73
2021/12/23 03:55:10;;;;;;;2.80;2.28;;;;;;;;;;5131972;27;20027;-71
2021/12/23 03:57:37;;;;;;;3.13;2.22;;;;;;;;;;5114629;27;20023;-72
2021/12/23 04:00:05;;;;;;;5.22;2.28;;;;;;;;;;5132641;27;20029;-72
2021/12/23 04:02:31;;;;;;;4.32;2.42;;;;;;;;;;5132485;27;20505;-73
2021/12/23 04:04:58;;;;;;;3.47;2.50;;;;;;;;;;5132847;27;20084;-73
2021/12/23 04:07:24;;;;;;;4.78;3.10;;;;;;;;;;5134993;27;20027;-73
2021/12/23 04:09:50;;;;;;;4.68;2.58;;;;;;;;;;5133565;27;20035;-73
2021/12/23 04:12:17;;;;;;;3.83;2.55;;;;;;;;;;5132595;27;20113;-72
2021/12/23 04:14:43;;;;;;;3.65;2.67;;;;;;;;;;5132523;27;20409;-72
2021/12/23 04:17:09;;;;;;;3.67;2.83;;;;;;;;;;5133576;27;20015;-72
2021/12/23 04:19:36;;;;;;;3.70;2.88;;;;;;;;;;5133781;27;20033;-72
2021/12/23 04:22:02;;;;;;;4.00;2.42;;;;;;;;;;5135024;27;20027;-73
2021/12/23 04:24:29;;;;;;;2.90;2.60;;;;;;;;;;5132467;27;20404;-73
2021/12/23 04:26:55;;;;;;;8.30;3.17;;;;;;;;;;5132460;27;20023;-72
2021/12/23 04:29:23;;;;;;;3.83;3.00;;;;;;;;;;5132109;27;20031;-73
2021/12/23 04:31:49;;;;;;;3.67;2.80;;;;;;;;;;5131860;27;20036;-73
2021/12/23 04:34:15;;;;;;;3.60;2.75;;;;;;;;;;5135264;27;20020;-73
2021/12/23 04:36:42;;;;;;;4.85;2.38;;;;;;;;;;5132512;27;20049;-73
2021/12/23 04:39:08;;;;;;;3.65;2.63;;;;;;;;;;5132000;27;20023;-72
2021/12/23 04:41:35;;;;;;;3.90;2.35;;;;;;;;;;5132137;27;20031;-73
2021/12/23 04:44:01;;;;;;;5.32;2.75;;;;;;;;;;5132055;27;20043;-73
2021/12/23 04:46:27;;;;;;;3.60;2.60;;;;;;;;;;5134038;27;20434;-73
2021/12/23 04:48:54;;;;;;;3.70;2.90;;;;;;;;;;5133042;27;20027;-73
2021/12/23 04:51:20;;;;;;;3.20;2.22;;;;;;;;;;5131856;27;20087;-73
2021/12/23 04:53:46;;;;;;;3.50;2.75;;;;;;;;;;5113425;27;20034;-73
2021/12/23 04:56:13;;;;;;;3.25;2.50;;;;;;;;;;5133382;27;20485;-73
2021/12/23 04:58:41;;;;;;;4.70;2.45;;;;;;;;;;5132510;27;20019;-73
2021/12/23 05:01:09;;;;;;;2.08;1.88;;;;;;;;;;5134538;27;20035;-73
2021/12/23 05:03:35;;;;;;;4.00;2.00;;;;;;;;;;5132200;27;20015;-72
2021/12/23 05:06:02;;;;;;;3.28;2.13;;;;;;;;;;5131514;27;20023;-73
2021/12/23 05:08:28;;;;;;;2.55;2.15;;;;;;;;;;5131540;27;20018;-73
2021/12/23 05:10:54;;;;;;;3.67;2.20;;;;;;;;;;5131587;27;20046;-72
2021/12/23 05:13:21;;;;;;;4.38;2.20;;;;;;;;;;5134171;27;20027;-73
2021/12/23 05:15:47;;;;;;;2.70;2.00;;;;;;;;;;5132087;27;20486;-73
2021/12/23 05:18:14;;;;;;;3.80;2.53;;;;;;;;;;5112927;27;20016;-73
2021/12/23 05:20:40;;;;;;;2.70;2.00;;;;;;;;;;5131291;27;20485;-73
2021/12/23 05:23:06;;;;;;;3.30;2.13;;;;;;;;;;5131344;27;20499;-73
2021/12/23 05:25:33;;;;;;;2.88;2.00;;;;;;;;;;5133328;27;20072;-73
2021/12/23 05:28:00;;;;;;;3.38;2.22;;;;;;;;;;5132958;27;20485;-73
2021/12/23 05:30:27;;;;;;;3.45;2.50;;;;;;;;;;5130654;27;20031;-73
2021/12/23 05:32:54;;;;;;;4.93;2.25;;;;;;;;;;5131206;27;20019;-73
2021/12/23 05:35:21;;;;;;;4.93;2.33;;;;;;;;;;5132460;27;20075;-72
2021/12/23 05:37:47;;;;;;;3.35;2.08;;;;;;;;;;5131250;27;20020;-72
2021/12/23 05:40:15;;;;;;;4.35;2.47;;;;;;;;;;5134573;27;20018;-73
2021/12/23 05:42:41;;;;;;;2.60;1.92;;;;;;;;;;5132683;27;20523;-72
2021/12/23 05:45:08;;;;;;;4.50;2.20;;;;;;;;;;5130305;27;20501;-73
2021/12/23 05:47:35;;;;;;;2.75;2.03;;;;;;;;;;5130182;27;20015;-73
2021/12/23 05:50:01;;;;;;;4.28;2.38;;;;;;;;;;5130588;27;20039;-73
2021/12/23 05:52:27;;;;;;;2.45;1.90;;;;;;;;;;5133019;27;20027;-73
2021/12/23 05:54:56;;;;;;;2.08;1.80;;;;;;;;;;5131947;27;20541;-73
2021/12/23 05:57:22;;;;;;;2.10;1.90;;;;;;;;;;5130422;27;20022;-73
2021/12/23 05:59:48;;;;;;;1.75;1.65;;;;;;;;;;5129996;27;20030;-73
2021/12/23 06:02:15;;;;;;;3.10;1.98;;;;;;;;;;5130740;27;20024;-73
2021/12/23 06:04:41;;;;;;;2.22;1.75;;;;;;;;;;5131052;27;20035;-73
2021/12/23 06:07:08;;;;;;;4.00;1.98;;;;;;;;;;5133474;27;20023;-73
2021/12/23 06:09:35;;;;;;;2.75;2.00;;;;;;;;;;5130503;27;20470;-72
2021/12/23 06:12:01;;;;;;;2.53;1.90;;;;;;;;;;5130206;27;20053;-72
2021/12/23 06:14:27;;;;;;;4.72;2.08;;;;;;;;;;5113371;27;20388;-73
2021/12/23 06:16:54;;;;;;;3.15;2.08;;;;;;;;;;5130290;27;20030;-73
2021/12/23 06:19:20;;;;;;;2.80;2.17;;;;;;;;;;5132874;27;20031;-73
2021/12/23 06:21:46;;;;;;;2.33;2.10;;;;;;;;;;5132593;27;20019;-72
2021/12/23 06:24:13;;;;;;;3.35;2.40;;;;;;;;;;5130003;27;20023;-73
2021/12/23 06:26:39;;;;;;;6.40;3.67;;;;;;;;;;5129944;27;20057;-72
2021/12/23 06:29:06;;;;;;;3.95;2.35;;;;;;;;;;5129868;27;20438;-72
2021/12/23 06:31:32;;;;;;;4.18;3.33;;;;;;;;;;5132111;27;20045;-73
2021/12/23 06:33:58;;;;;;;4.07;2.72;;;;;;;;;;5131746;27;20115;-73
2021/12/23 06:36:25;;;;;;;3.53;2.53;;;;;;;;;;5129796;27;20027;-72
2021/12/23 06:38:51;;;;;;;3.10;2.30;;;;;;;;;;5129884;27;20015;-72
2021/12/23 06:41:18;;;;;;;3.03;2.40;;;;;;;;;;5129429;27;20025;-72
2021/12/23 06:43:46;;;;;;;3.22;2.85;;;;;;;;;;5113660;27;20047;-72
2021/12/23 06:46:12;;;;;;;3.08;2.50;;;;;;;;;;5129035;27;20430;-73
2021/12/23 06:48:39;;;;;;;3.50;2.40;;;;;;;;;;5129699;27;20027;-72
2021/12/23 06:51:05;;;;;;;3.33;2.60;;;;;;;;;;5129486;27;20041;-73
2021/12/23 06:53:32;;;;;;;4.13;2.92;;;;;;;;;;5112860;27;20023;-73
2021/12/23 06:56:00;;;;;;;4.22;2.88;;;;;;;;;;5129249;27;20024;-73
2021/12/23 06:58:27;;;;;;;4.43;2.22;;;;;;;;;;5132157;27;20035;-73
2021/12/23 07:00:53;;;;;;;3.90;2.70;;;;;;;;;;5130537;27;20037;-73
2021/12/23 07:03:21;;;;;;;7.53;2.72;;;;;;;;;;5129499;27;20015;-73
2021/12/23 07:05:55;;;;;;;4.50;2.58;;;;;;;;;;5129244;27;20029;-73
2021/12/23 07:08:27;;;;;;;4.10;2.65;;;;;;;;;;5129431;27;20023;-73
2021/12/23 07:10:54;;;;;;;3.60;2.63;;;;;;;;;;5110642;28;20502;-72
2021/12/23 07:13:20;;;;;;;4.47;2.53;;;;;;;;;;5131977;27;20027;-73
2021/12/23 07:15:47;;;;;;;4.85;3.40;;;;;;;;;;5131445;27;20035;-73
2021/12/23 07:18:13;;;;;;;3.90;3.00;;;;;;;;;;5129238;28;20019;-73
2021/12/23 07:20:40;;;;;;;4.95;2.90;;;;;;;;;;5129154;28;20038;-73
2021/12/23 07:23:06;;;;;;;6.20;3.10;;;;;;;;;;5129341;28;20053;-73
2021/12/23 07:25:32;;;;;;;4.93;2.60;;;;;;;;;;5130822;28;20068;-73
2021/12/23 07:27:59;;;;;;;5.53;2.75;;;;;;;;;;5130896;28;20015;-72
2021/12/23 07:30:25;;;;;;;4.15;2.45;;;;;;;;;;5129033;28;20537;-73
2021/12/23 07:32:52;;;;;;;6.03;4.25;;;;;;;;;;5130554;28;20481;-73
2021/12/23 07:35:19;;;;;;;3.53;2.70;;;;;;;;;;5129170;28;20384;-73
2021/12/23 07:37:46;;;;;;;3.40;2.60;;;;;;;;;;5129501;27;20042;-73
2021/12/23 07:40:14;;;;;;;12.52;7.97;;;;;;;;;;5128392;28;20033;-73
2021/12/23 07:42:51;;;;;;;7.63;4.88;;;;;;;;;;5129041;28;20027;-73
2021/12/23 07:45:18;;;;;;;14.48;9.48;;;;;;;;;;5128743;28;20045;-73
2021/12/23 07:47:44;;;;;;;22.23;11.07;;;;;;;;;;5129152;28;20023;-73
2021/12/23 07:50:10;;;;;;;46.15;24.13;;;;;;;;;;5129196;28;20075;-72
2021/12/23 07:52:37;;;;;;;18.25;8.05;;;;;;;;;;5130276;28;20023;-73
2021/12/23 07:55:03;;;;;;;6.07;4.28;;;;;;;;;;5130900;28;20473;-73
2021/12/23 07:57:30;;;;;;;4.80;3.25;;;;;;;;;;5128986;28;20034;-73
2021/12/23 07:59:58;;;;;;;4.60;3.42;;;;;;;;;;5128910;28;20033;-72
2021/12/23 08:02:24;;;;;;;5.03;3.10;;;;;;;;;;5128917;28;20023;-73
2021/12/23 08:04:50;;;;;;;5.20;3.63;;;;;;;;;;5129021;28;20020;-73
2021/12/23 08:07:17;;;;;;;5.55;3.80;;;;;;;;;;5132040;28;20053;-73
2021/12/23 08:09:43;;;;;;;7.97;4.25;;;;;;;;;;5130687;27;20034;-72
2021/12/23 08:12:10;;;;;;;5.82;3.58;;;;;;;;;;5134157;27;20469;-73
2021/12/23 08:14:36;;;;;;;3.53;3.00;;;;;;;;;;5132643;27;20411;-73
2021/12/23 08:17:03;;;;;;;4.88;2.55;;;;;;;;;;5134449;27;20034;-73
2021/12/23 08:19:29;;;;;;;6.95;3.15;;;;;;;;;;5134884;27;20031;-73
2021/12/23 08:21:55;;;;;;;7.95;4.07;;;;;;;;;;5133992;27;20032;-73
2021/12/23 08:24:22;;;;;;;24.10;10.30;;;;;;;;;;5113716;27;20076;-73
2021/12/23 08:26:53;;;;;;;10.98;5.93;;;;;;;;;;5132358;27;20404;-72
2021/12/23 08:29:20;;;;;;;7.50;5.07;;;;;;;;;;5132167;27;20524;-73
2021/12/23 08:31:52;;;;;;;13.43;4.63;;;;;;;;;;5132224;27;20500;-73
2021/12/23 08:34:19;;;;;;;5.63;3.08;;;;;;;;;;5116949;27;20392;-72
2021/12/23 08:36:46;;;;;;;7.60;3.50;;;;;;;;;;5132955;27;20031;-72
2021/12/23 08:39:12;;;;;;;6.82;3.33;;;;;;;;;;5132071;27;20024;-73
2021/12/23 08:41:38;;;;;;;7.13;3.40;;;;;;;;;;5132067;27;20083;-73
2021/12/23 08:44:05;;;;;;;6.55;3.60;;;;;;;;;;5110404;28;20036;-73
2021/12/23 08:46:31;;;;;;;5.40;3.08;;;;;;;;;;5113534;28;20498;-73
2021/12/23 08:48:58;;;;;;;5.72;2.83;;;;;;;;;;5113286;28;20020;-73
2021/12/23 08:51:24;;;;;;;5.28;3.05;;;;;;;;;;5112762;28;20072;-73
2021/12/23 08:53:50;;;;;;;6.25;2.85;;;;;;;;;;5111303;28;20064;-72
2021/12/23 08:56:17;;;;;;;6.55;3.10;;;;;;;;;;5111648;28;20031;-73
2021/12/23 08:58:43;;;;;;;6.00;3.42;;;;;;;;;;5095432;28;20030;-73
2021/12/23 09:01:11;;;;;;;5.80;3.28;;;;;;;;;;5114222;28;20470;-73
2021/12/23 09:03:37;;;;;;;5.95;3.67;;;;;;;;;;5111046;28;20080;-72
2021/12/23 09:06:04;;;;;;;6.15;3.45;;;;;;;;;;5109567;28;20028;-72
2021/12/23 09:08:31;;;;;;;5.28;3.42;;;;;;;;;;5110834;28;20478;-73
2021/12/23 09:10:58;;;;;;;10.70;3.25;;;;;;;;;;5111017;28;20032;-73
2021/12/23 09:13:25;;;;;;;5.63;3.63;;;;;;;;;;5113371;28;20034;-72
2021/12/23 09:15:52;;;;;;;6.78;3.08;;;;;;;;;;5112311;28;20031;-73
2021/12/23 09:18:21;;;;;;;6.20;3.00;;;;;;;;;;5111092;28;20024;-72
2021/12/23 09:20:49;;;;;;;5.57;3.10;;;;;;;;;;5109224;28;20373;-73
2021/12/23 09:23:15;;;;;;;6.22;3.47;;;;;;;;;;5110901;28;20435;-73
2021/12/23 09:25:42;;;;;;;5.68;2.83;;;;;;;;;;5111386;28;20061;-73
2021/12/23 09:33:31;;;;;;;4.20;3.10;;;;;;;;;;5110440;28;20038;-73
2021/12/23 09:35:57;;;;;;;5.97;3.30;;;;;;;;;;5110411;27;20030;-72
2021/12/23 09:38:29;;;;;;;5.70;3.22;;;;;;;;;;5110560;28;20021;-73
2021/12/23 09:40:58;;;;;;;8.10;3.60;;;;;;;;;;5110729;28;20019;-73
2021/12/23 09:43:26;;;;;;;5.28;2.92;;;;;;;;;;5116002;27;20039;-72
2021/12/23 09:45:53;;;;;;;5.90;3.13;;;;;;;;;;5131901;27;20042;-73
2021/12/23 09:48:21;;;;;;;5.18;3.08;;;;;;;;;;5130799;27;20509;-73
2021/12/23 09:50:48;;;;;;;3.88;2.97;;;;;;;;;;5130360;27;20491;-73
2021/12/23 09:53:20;;;;;;;6.63;2.90;;;;;;;;;;5130579;27;20008;-73
2021/12/23 09:55:46;;;;;;;5.15;2.70;;;;;;;;;;5114673;27;20507;-73
2021/12/23 09:58:14;;;;;;;6.25;2.85;;;;;;;;;;5130201;27;20043;-73
2021/12/23 10:00:45;;;;;;;5.47;2.40;;;;;;;;;;5130457;27;20027;-72
2021/12/23 10:03:12;;;;;;;3.47;2.90;;;;;;;;;;5130406;27;20064;-73
2021/12/23 10:05:39;;;;;;;6.13;2.75;;;;;;;;;;5130186;27;20031;-73
2021/12/23 10:08:06;;;;;;;2.85;2.40;;;;;;;;;;5131880;27;20075;-73
2021/12/23 10:28:51;;;;;;;3.05;2.00;;;;;;;;;;5130082;27;20026;-72
2021/12/23 10:32:48;;;;;;;2.85;2.10;;;;;;;;;;5129621;27;20027;-73
2021/12/23 10:38:02;;;;;;;2.88;1.92;;;;;;;;;;5114967;27;20030;-73
2021/12/23 10:40:29;;;;;;;3.08;1.98;;;;;;;;;;5132038;27;20029;-73
2021/12/23 10:42:55;;;;;;;2.03;1.70;;;;;;;;;;5131234;27;20030;-73
2021/12/23 10:45:22;;;;;;;2.63;2.00;;;;;;;;;;5129575;27;20541;-73
2021/12/23 10:50:18;;;;;;;4.22;2.00;;;;;;;;;;5129828;27;20035;-72
2021/12/23 10:52:52;;;;;;;4.20;1.75;;;;;;;;;;5113805;27;20011;-73
2021/12/23 10:58:11;;;;;;;3.90;2.10;;;;;;;;;;5130703;27;20027;-73
2021/12/23 11:00:46;;;;;;;3.42;1.65;;;;;;;;;;5129288;27;20115;-73
2021/12/23 11:06:03;;;;;;;4.57;2.00;;;;;;;;;;5129587;27;20037;-73
2021/12/23 11:08:41;;;;;;;3.00;2.10;;;;;;;;;;5129364;27;20018;-73
2021/12/23 11:28:42;;;;;;;2.30;2.10;;;;;;;;;;5131668;28;20027;-73
2021/12/23 11:46:23;;;;;;;2.70;1.90;;;;;;;;;;5132388;27;20482;-73
2021/12/23 11:48:53;;;;;;;2.47;2.20;;;;;;;;;;5135525;27;20027;-72
2021/12/23 11:51:31;;;;;;;2.78;2.20;;;;;;;;;;5132847;27;20382;-73
2021/12/23 11:53:58;;;;;;;4.10;1.90;;;;;;;;;;5132989;27;20018;-73
2021/12/23 11:56:26;;;;;;;4.78;1.80;;;;;;;;;;5133022;27;20023;-73
2021/12/23 11:58:55;;;;;;;3.13;2.00;;;;;;;;;;5133037;27;20019;-73
2021/12/23 12:01:24;;;;;;;3.47;1.60;;;;;;;;;;5135127;27;20019;-73
2021/12/23 12:03:52;;;;;;;4.68;1.63;;;;;;;;;;5135683;27;20027;-73
2021/12/23 12:06:20;;;;;;;6.05;2.05;;;;;;;;;;5134268;27;20402;-73
2021/12/23 12:08:46;;;;;;;3.40;1.40;;;;;;;;;;5132843;27;20027;-73
2021/12/23 12:11:15;;;;;;;2.58;1.48;;;;;;;;;;5132818;27;20027;-73
2021/12/23 12:13:42;;;;;;;2.38;1.65;;;;;;;;;;5132806;27;20015;-73
2021/12/23 12:16:27;;;;;;;1.67;1.20;;;;;;;;;;5135567;27;20038;-73
2021/12/23 12:18:53;;;;;;;4.72;2.95;;;;;;;;;;5135879;27;20023;-73
2021/12/23 12:21:24;;;;;;;2.05;1.85;;;;;;;;;;5114055;27;20717;-73
2021/12/23 12:23:50;;;;;;;;;;;;;;;;;;5132865;27;20504;-73
2021/12/23 12:26:24;;;;;;;1.20;1.10;;;;;;;;;;5132589;27;20309;-73
2021/12/23 12:28:51;;;;;;;1.70;1.50;;;;;;;;;;5116840;27;20015;-73
2021/12/23 12:31:25;;;;;;;2.47;1.58;;;;;;;;;;5135062;27;20039;-73
2021/12/23 12:33:55;;;;;;;2.42;1.40;;;;;;;;;;5114947;27;20027;-73
2021/12/23 12:36:23;;;;;;;2.28;1.60;;;;;;;;;;5132537;27;20435;-73
2021/12/23 12:38:58;;;;;;;2.67;2.10;;;;;;;;;;5132137;27;20018;-73
2021/12/23 12:41:24;;;;;;;2.30;1.70;;;;;;;;;;5132267;27;20038;-72
2021/12/23 12:43:57;;;;;;;3.05;1.35;;;;;;;;;;5132866;27;20518;-73
2021/12/23 12:46:36;;;;;;;2.28;1.92;;;;;;;;;;5134714;27;20042;-73
2021/12/23 12:49:14;;;;;;;3.88;1.65;;;;;;;;;;5134205;27;20016;-72
2021/12/23 12:51:41;;;;;;;5.63;1.98;;;;;;;;;;5132058;27;20042;-73
2021/12/23 12:54:12;;;;;;;3.85;1.90;;;;;;;;;;5131899;27;20031;-71
2021/12/23 12:56:46;;;;;;;12.43;7.70;;;;;;;;;;5131726;27;20511;-72
2021/12/23 12:59:13;;;;;;;5.80;3.25;;;;;;;;;;5131775;27;20016;-73
2021/12/23 13:01:47;;;;;;;2.35;1.63;;;;;;;;;;5114404;27;20034;-73
2021/12/23 13:04:25;;;;;;;2.45;1.58;;;;;;;;;;5130917;27;20023;-73
2021/12/23 13:06:53;;;;;;;3.15;1.60;;;;;;;;;;5134421;27;20031;-72
2021/12/23 13:09:24;;;;;;;3.00;2.08;;;;;;;;;;5131337;27;20482;-72
2021/12/23 13:11:50;;;;;;;3.10;1.77;;;;;;;;;;5131792;27;20027;-73
2021/12/23 13:14:21;;;;;;;3.72;1.70;;;;;;;;;;5131557;27;20023;-72
2021/12/23 13:16:52;;;;;;;2.80;1.75;;;;;;;;;;5115622;27;20019;-73
2021/12/23 13:19:18;;;;;;;3.97;1.90;;;;;;;;;;5134559;27;20034;-73
2021/12/23 13:21:55;;;;;;;2.42;1.65;;;;;;;;;;5131748;27;20372;-72
2021/12/23 13:24:22;;;;;;;3.85;1.70;;;;;;;;;;5132724;27;20015;-73
2021/12/23 13:26:49;;;;;;;3.97;1.70;;;;;;;;;;5112843;27;20075;-73
2021/12/23 13:29:15;;;;;;;2.78;1.33;;;;;;;;;;5131049;27;20018;-73
2021/12/23 13:31:43;;;;;;;4.20;1.80;;;;;;;;;;5131906;27;20033;-73
2021/12/23 13:34:20;;;;;;;1.45;1.35;;;;;;;;;;5134305;27;20033;-73
2021/12/23 13:36:48;;;;;;;8.30;1.90;;;;;;;;;;5115708;27;20042;-73
2021/12/23 13:39:19;;;;;;;3.30;1.70;;;;;;;;;;5131261;27;20011;-72
2021/12/23 13:41:46;;;;;;;;;;;;;;;;;;5131085;27;20092;-73
2021/12/23 13:44:20;;;;;;;2.10;1.52;;;;;;;;;;5130765;27;20341;-73
2021/12/23 13:46:55;;;;;;;3.90;1.63;;;;;;;;;;5114925;27;20019;-73
2021/12/23 13:49:30;;;;;;;2.53;1.40;;;;;;;;;;5130217;27;20019;-73
2021/12/23 13:51:57;;;;;;;4.18;1.30;;;;;;;;;;5131960;27;20084;-72
2021/12/23 13:54:23;;;;;;;2.75;1.60;;;;;;;;;;5130881;27;20023;-74
2021/12/23 13:56:51;;;;;;;1.80;1.42;;;;;;;;;;5130364;27;20028;-73
2021/12/23 13:59:17;;;;;;;2.88;1.75;;;;;;;;;;5112278;27;20026;-73
2021/12/23 14:01:52;;;;;;;2.35;1.30;;;;;;;;;;5132011;27;20398;-73
2021/12/23 14:04:42;;;;;;;3.08;1.60;;;;;;;;;;5130039;27;20041;-73
2021/12/23 14:07:10;;;;;;;1.55;1.40;;;;;;;;;;5120346;27;20102;-72
2021/12/23 14:09:38;;;;;;;2.05;1.40;;;;;;;;;;5130724;27;20015;-73
2021/12/23 14:12:05;;;;;;;2.38;1.50;;;;;;;;;;5130000;27;20043;-73
2021/12/23 14:14:32;;;;;;;1.77;1.55;;;;;;;;;;5130580;27;20016;-73
2021/12/23 14:16:58;;;;;;;1.85;1.23;;;;;;;;;;5111902;27;20379;-73
2021/12/23 14:19:47;;;;;;;1.50;1.40;;;;;;;;;;5132562;27;20023;-73
2021/12/23 14:24:56;;;;;;;2.25;1.45;;;;;;;;;;5133399;27;20019;-73
2021/12/23 14:27:22;;;;;;;4.70;1.40;;;;;;;;;;5129961;27;20015;-73
2021/12/23 14:29:59;;;;;;;2.13;1.30;;;;;;;;;;5111448;27;20035;-73
2021/12/23 14:32:26;;;;;;;2.33;1.60;;;;;;;;;;5129835;27;20023;-72
2021/12/23 14:34:52;;;;;;;1.45;1.25;;;;;;;;;;5130100;27;20031;-72
2021/12/23 14:37:18;;;;;;;6.30;1.65;;;;;;;;;;5133046;27;20115;-72
2021/12/23 14:39:45;;;;;;;2.15;1.70;;;;;;;;;;5129954;27;20481;-73
2021/12/23 14:42:15;;;;;;;2.30;1.77;;;;;;;;;;5131268;27;20030;-73
2021/12/23 14:44:42;;;;;;;2.83;1.70;;;;;;;;;;5129814;27;20031;-73
2021/12/23 14:47:15;;;;;;;1.98;1.65;;;;;;;;;;5130034;27;20481;-73
2021/12/23 14:52:17;;;;;;;2.65;1.88;;;;;;;;;;5128902;27;20027;-73
2021/12/23 14:55:07;;;;;;;1.47;1.33;;;;;;;;;;5131148;27;20019;-73
2021/12/23 14:57:33;;;;;;;1.50;1.40;;;;;;;;;;5118597;27;20163;-73
2021/12/23 15:00:01;;;;;;;2.67;1.48;;;;;;;;;;5129494;27;20027;-73
2021/12/23 15:02:29;;;;;;;1.40;1.30;;;;;;;;;;5129427;27;20442;-73
2021/12/23 15:05:06;;;;;;;3.42;1.27;;;;;;;;;;5129510;27;20015;-73
2021/12/23 15:08:04;;;;;;;1.58;1.48;;;;;;;;;;5131695;27;20392;-73
2021/12/23 15:10:34;;;;;;;2.28;1.30;;;;;;;;;;5066651;28;20058;-73
2021/12/23 15:13:01;;;;;;;2.55;1.27;;;;;;;;;;5069497;28;20029;-73
2021/12/23 15:15:31;;;;;;;2.05;1.48;;;;;;;;;;5069173;28;20032;-73
2021/12/23 15:18:06;;;;;;;1.42;1.33;;;;;;;;;;5068605;28;20029;-73
2021/12/23 15:20:33;;;;;;;1.52;1.35;;;;;;;;;;5068124;28;20081;-73
2021/12/23 15:23:01;;;;;;;2.08;1.60;;;;;;;;;;5069264;28;20025;-73
2021/12/23 15:25:38;;;;;;;2.83;1.80;;;;;;;;;;5069010;28;20024;-72
2021/12/23 15:28:06;;;;;;;1.85;1.50;;;;;;;;;;5069422;28;20123;-73
2021/12/23 15:30:33;;;;;;;3.10;2.30;;;;;;;;;;5068776;28;20037;-73
2021/12/23 15:33:00;;;;;;;5.18;2.40;;;;;;;;;;5068806;28;20032;-72
2021/12/23 15:35:30;;;;;;;6.10;2.65;;;;;;;;;;5068921;28;20028;-73
2021/12/23 15:37:58;;;;;;;12.73;3.03;;;;;;;;;;5068806;28;20020;-73
2021/12/23 15:40:26;;;;;;;5.35;2.70;;;;;;;;;;5068572;28;20033;-73
2021/12/23 15:42:54;;;;;;;8.80;2.53;;;;;;;;;;5069250;28;20029;-72
2021/12/23 15:45:21;;;;;;;4.78;2.47;;;;;;;;;;5080817;28;20504;-73
2021/12/23 15:47:51;;;;;;;5.90;2.60;;;;;;;;;;5129059;28;20035;-73
2021/12/23 15:50:17;;;;;;;5.25;3.13;;;;;;;;;;5129035;28;20035;-73
2021/12/23 15:52:44;;;;;;;3.75;2.65;;;;;;;;;;5129295;28;20141;-73
2021/12/23 15:55:10;;;;;;;3.00;2.53;;;;;;;;;;5132012;28;20469;-73
2021/12/23 15:57:36;;;;;;;1.98;1.77;;;;;;;;;;5129242;28;20031;-73
2021/12/23 16:00:03;;;;;;;5.80;3.45;;;;;;;;;;5130249;28;20503;-73
2021/12/23 16:02:32;;;;;;;2.70;1.95;;;;;;;;;;5110724;28;20049;-73
2021/12/23 16:07:16;;;;;;;3.67;2.72;;;;;;;;;;5129104;27;20026;-72
2021/12/23 16:07:45;;;;;;;6.18;3.70;;;;;;;;;;5129058;28;20023;-73